Wetterdaten: Woche 17.07.23 - 23.07.23 (KW29)
Datum Zeit Temp. Aussen Temp. o. S. Temp +5cm Feuchte Auss Luftdruck Regen Sonnenschein Regendauer Solar Windben Empfang
17.07.2023 00:00 19,5 C 18,0 C 14,6 C 77 % 1015,9 hPa 0,0 l/m 0,00 h 0,00 h 0 W/m 0,0 km/h (0 Bft) 92,31 %
17.07.2023 01:00 18,5 C 17,2 C 13,5 C 82 % 1016,2 hPa 0,0 l/m 0,00 h 0,17 h 0 W/m 3,5 km/h (1 Bft) 98,57 %
17.07.2023 02:00 17,9 C 16,9 C 13,3 C 86 % 1016,6 hPa 0,2 l/m 0,00 h 0,10 h 0 W/m 5,1 km/h (1 Bft) 96,23 %
17.07.2023 03:00 17,0 C 16,1 C 12,0 C 87 % 1016,9 hPa 0,2 l/m 0,00 h 0,33 h 0 W/m 8,3 km/h (2 Bft) 97,72 %
17.07.2023 04:00 16,1 C 15,5 C 11,9 C 90 % 1016,9 hPa 0,0 l/m 0,00 h 0,00 h 0 W/m 8,8 km/h (2 Bft) 97,98 %
17.07.2023 05:00 15,7 C 14,7 C 11,8 C 90 % 1017,2 hPa 0,0 l/m 0,00 h 0,00 h 6 W/m 6,6 km/h (2 Bft) 95,94 %
17.07.2023 06:00 15,5 C 14,9 C 11,7 C 90 % 1017,6 hPa 0,0 l/m 0,00 h 0,00 h 19 W/m 7,1 km/h (2 Bft) 98,47 %
17.07.2023 07:00 15,9 C 15,5 C 12,3 C 89 % 1018,1 hPa 0,0 l/m 0,00 h 0,00 h 36 W/m 11,4 km/h (2 Bft) 98,44 %
17.07.2023 08:00 17,3 C 19,7 C 14,0 C 84 % 1018,6 hPa 0,0 l/m 0,87 h 0,00 h 319 W/m 15,0 km/h (3 Bft) 96,80 %
17.07.2023 09:00 18,9 C 22,5 C 17,4 C 76 % 1019,0 hPa 0,0 l/m 1,00 h 0,00 h 546 W/m 17,2 km/h (3 Bft) 96,29 %
17.07.2023 10:00 20,2 C 21,6 C 17,7 C 69 % 1019,3 hPa 0,0 l/m 0,97 h 0,00 h 705 W/m 17,2 km/h (3 Bft) 98,74 %
17.07.2023 11:00 21,1 C 23,0 C 18,9 C 63 % 1019,5 hPa 0,0 l/m 0,97 h 0,00 h 832 W/m 20,3 km/h (4 Bft) 97,71 %
17.07.2023 12:00 21,5 C 22,9 C 19,6 C 62 % 1019,6 hPa 0,0 l/m 0,40 h 0,00 h 482 W/m 19,6 km/h (3 Bft) 99,06 %
17.07.2023 13:00 21,7 C 22,8 C 18,7 C 62 % 1019,6 hPa 0,0 l/m 0,40 h 0,00 h 449 W/m 18,7 km/h (3 Bft) 94,49 %
17.07.2023 14:00 23,5 C 27,3 C 19,9 C 58 % 1019,3 hPa 0,0 l/m 0,97 h 0,00 h 906 W/m 16,2 km/h (3 Bft) 98,94 %
17.07.2023 15:00 23,7 C 24,9 C 19,9 C 54 % 1019,0 hPa 0,0 l/m 0,57 h 0,00 h 485 W/m 18,6 km/h (3 Bft) 97,58 %
17.07.2023 16:00 22,4 C 22,0 C 18,1 C 60 % 1019,3 hPa 0,0 l/m 0,30 h 0,17 h 209 W/m 18,7 km/h (3 Bft) 97,01 %
17.07.2023 17:00 19,5 C 19,4 C 15,9 C 77 % 1019,9 hPa 0,0 l/m 0,07 h 0,17 h 160 W/m 13,7 km/h (3 Bft) 97,79 %
17.07.2023 18:00 17,7 C 18,9 C 12,5 C 85 % 1020,6 hPa 2,2 l/m 0,53 h 0,23 h 275 W/m 10,6 km/h (2 Bft) 97,34 %
17.07.2023 19:00 18,5 C 20,4 C 12,5 C 84 % 1020,6 hPa 0,0 l/m 0,80 h 0,00 h 235 W/m 4,6 km/h (1 Bft) 96,58 %
17.07.2023 20:00 18,8 C 18,1 C 12,7 C 80 % 1020,9 hPa 0,0 l/m 0,00 h 0,00 h 35 W/m 3,6 km/h (1 Bft) 98,35 %
17.07.2023 21:00 18,4 C 17,1 C 13,3 C 81 % 1021,3 hPa 0,0 l/m 0,00 h 0,00 h 12 W/m 1,4 km/h (1 Bft) 96,04 %
17.07.2023 22:00 17,3 C 15,8 C 12,1 C 86 % 1021,7 hPa 0,0 l/m 0,00 h 0,00 h 0 W/m 0,4 km/h (0 Bft) 97,80 %
17.07.2023 23:00 16,3 C 14,8 C 11,3 C 89 % 1022,0 hPa 0,0 l/m 0,00 h 0,00 h 0 W/m 0,0 km/h (0 Bft) 98,49 %
18.07.2023 00:00 15,3 C 14,2 C 10,9 C 91 % 1022,2 hPa 0,0 l/m 0,00 h 0,00 h 0 W/m 0,4 km/h (0 Bft) 96,94 %
18.07.2023 01:00 14,6 C 13,4 C 10,2 C 92 % 1022,3 hPa 0,0 l/m 0,00 h 0,00 h 0 W/m 0,0 km/h (0 Bft) 96,06 %
18.07.2023 02:00 14,2 C 13,6 C 10,6 C 93 % 1022,2 hPa 0,0 l/m 0,00 h 0,00 h 0 W/m 2,1 km/h (1 Bft) 97,34 %
18.07.2023 03:00 14,0 C 13,2 C 10,5 C 92 % 1021,9 hPa 0,0 l/m 0,00 h 0,00 h 0 W/m 1,4 km/h (1 Bft) 98,78 %
18.07.2023 04:00 13,7 C 12,6 C 9,7 C 92 % 1021,6 hPa 0,0 l/m 0,00 h 0,00 h 0 W/m 0,6 km/h (0 Bft) 96,57 %
18.07.2023 05:00 13,2 C 12,2 C 9,5 C 92 % 1021,6 hPa 0,0 l/m 0,00 h 0,00 h 5 W/m 2,1 km/h (1 Bft) 96,75 %
18.07.2023 06:00 12,8 C 11,9 C 9,3 C 93 % 1021,5 hPa 0,0 l/m 0,00 h 0,00 h 13 W/m 2,3 km/h (1 Bft) 98,51 %
18.07.2023 07:00 12,9 C 12,7 C 9,8 C 94 % 1021,3 hPa 0,0 l/m 0,00 h 0,00 h 28 W/m 2,5 km/h (1 Bft) 95,17 %
18.07.2023 08:00 14,9 C 20,0 C 12,5 C 91 % 1021,4 hPa 0,0 l/m 0,93 h 0,00 h 339 W/m 3,6 km/h (1 Bft) 98,30 %
18.07.2023 09:00 19,1 C 25,5 C 18,1 C 76 % 1021,2 hPa 0,0 l/m 1,00 h 0,00 h 513 W/m 6,0 km/h (2 Bft) 98,43 %
18.07.2023 10:00 21,2 C 23,8 C 18,3 C 67 % 1020,9 hPa 0,0 l/m 1,00 h 0,00 h 659 W/m 8,9 km/h (2 Bft) 98,08 %
18.07.2023 11:00 22,3 C 24,6 C 20,2 C 60 % 1020,4 hPa 0,0 l/m 1,00 h 0,00 h 613 W/m 9,8 km/h (2 Bft) 98,16 %
18.07.2023 12:00 22,6 C 23,0 C 19,6 C 59 % 1020,0 hPa 0,0 l/m 0,30 h 0,00 h 352 W/m 7,6 km/h (2 Bft) 96,90 %
18.07.2023 13:00 23,0 C 25,4 C 20,0 C 58 % 1019,3 hPa 0,0 l/m 0,63 h 0,00 h 594 W/m 11,5 km/h (2 Bft) 97,20 %
18.07.2023 14:00 24,6 C 29,1 C 20,9 C 55 % 1018,9 hPa 0,0 l/m 0,90 h 0,00 h 790 W/m 12,8 km/h (3 Bft) 99,36 %
18.07.2023 15:00 25,2 C 29,3 C 20,5 C 53 % 1018,0 hPa 0,0 l/m 1,00 h 0,00 h 822 W/m 13,0 km/h (3 Bft) 95,68 %
18.07.2023 16:00 25,7 C 29,7 C 20,9 C 52 % 1017,1 hPa 0,0 l/m 1,00 h 0,00 h 723 W/m 11,9 km/h (2 Bft) 98,30 %
18.07.2023 17:00 26,0 C 29,9 C 21,6 C 51 % 1016,7 hPa 0,0 l/m 1,00 h 0,00 h 584 W/m 11,5 km/h (2 Bft) 97,70 %
18.07.2023 18:00 26,1 C 30,2 C 22,0 C 51 % 1016,0 hPa 0,0 l/m 1,00 h 0,00 h 421 W/m 10,1 km/h (2 Bft) 96,55 %
18.07.2023 19:00 26,1 C 27,4 C 20,9 C 51 % 1015,4 hPa 0,0 l/m 0,80 h 0,00 h 245 W/m 10,7 km/h (2 Bft) 97,65 %
18.07.2023 20:00 24,0 C 22,7 C 18,7 C 55 % 1015,1 hPa 0,0 l/m 0,00 h 0,00 h 41 W/m 4,8 km/h (1 Bft) 98,36 %
18.07.2023 21:00 22,2 C 20,2 C 16,7 C 63 % 1015,2 hPa 0,0 l/m 0,00 h 0,00 h 9 W/m 0,4 km/h (0 Bft) 96,94 %
18.07.2023 22:00 20,3 C 18,7 C 15,2 C 71 % 1015,3 hPa 0,0 l/m 0,00 h 0,00 h 0 W/m 0,0 km/h (0 Bft) 98,44 %
18.07.2023 23:00 19,0 C 17,3 C 14,0 C 74 % 1015,2 hPa 0,0 l/m 0,00 h 0,00 h 0 W/m 0,0 km/h (0 Bft) 96,71 %
19.07.2023 00:00 17,7 C 16,2 C 13,0 C 79 % 1015,0 hPa 0,0 l/m 0,00 h 0,00 h 0 W/m 0,0 km/h (0 Bft) 94,66 %
19.07.2023 01:00 16,8 C 15,4 C 12,4 C 83 % 1014,6 hPa 0,0 l/m 0,00 h 0,00 h 0 W/m 0,0 km/h (0 Bft) 99,08 %
19.07.2023 02:00 16,1 C 14,9 C 11,8 C 86 % 1014,3 hPa 0,0 l/m 0,00 h 0,00 h 0 W/m 0,0 km/h (0 Bft) 96,94 %
19.07.2023 03:00 15,6 C 14,7 C 11,7 C 86 % 1013,9 hPa 0,0 l/m 0,00 h 0,00 h 0 W/m 0,4 km/h (0 Bft) 97,39 %
19.07.2023 04:00 15,3 C 14,3 C 11,1 C 85 % 1013,9 hPa 0,0 l/m 0,00 h 0,00 h 0 W/m 1,1 km/h (1 Bft) 95,12 %
19.07.2023 05:00 15,0 C 14,1 C 11,0 C 87 % 1013,8 hPa 0,0 l/m 0,00 h 0,00 h 7 W/m 0,0 km/h (0 Bft) 98,71 %
19.07.2023 06:00 15,3 C 15,0 C 11,8 C 88 % 1014,0 hPa 0,0 l/m 0,00 h 0,00 h 31 W/m 0,3 km/h (0 Bft) 97,06 %
19.07.2023 07:00 16,3 C 16,3 C 12,9 C 86 % 1014,0 hPa 0,0 l/m 0,00 h 0,00 h 69 W/m 0,9 km/h (0 Bft) 95,67 %
19.07.2023 08:00 17,6 C 17,7 C 14,0 C 83 % 1014,1 hPa 0,0 l/m 0,00 h 0,00 h 105 W/m 2,2 km/h (1 Bft) 99,50 %
19.07.2023 09:00 19,0 C 19,2 C 15,4 C 80 % 1014,3 hPa 0,0 l/m 0,00 h 0,00 h 161 W/m 2,6 km/h (1 Bft) 95,72 %
19.07.2023 10:00 19,8 C 19,3 C 15,3 C 80 % 1014,2 hPa 0,2 l/m 0,00 h 0,10 h 157 W/m 0,0 km/h (0 Bft) 98,12 %
19.07.2023 11:00 20,3 C 21,1 C 17,3 C 79 % 1014,0 hPa 0,0 l/m 0,40 h 0,00 h 365 W/m 5,5 km/h (1 Bft) 97,66 %
19.07.2023 12:00 22,2 C 23,6 C 19,4 C 67 % 1013,8 hPa 0,0 l/m 0,90 h 0,00 h 539 W/m 13,6 km/h (3 Bft) 98,31 %
19.07.2023 13:00 24,0 C 27,4 C 20,7 C 60 % 1013,6 hPa 0,0 l/m 0,87 h 0,00 h 803 W/m 15,2 km/h (3 Bft) 96,17 %
19.07.2023 14:00 24,3 C 25,5 C 20,6 C 59 % 1013,4 hPa 0,0 l/m 0,53 h 0,00 h 479 W/m 16,2 km/h (3 Bft) 97,88 %
19.07.2023 15:00 24,9 C 27,3 C 20,6 C 58 % 1013,1 hPa 0,0 l/m 0,73 h 0,00 h 683 W/m 16,8 km/h (3 Bft) 98,14 %
19.07.2023 16:00 23,7 C 24,1 C 19,6 C 63 % 1013,3 hPa 0,0 l/m 0,50 h 0,00 h 375 W/m 17,8 km/h (3 Bft) 97,73 %
19.07.2023 17:00 23,6 C 24,2 C 19,3 C 63 % 1013,1 hPa 0,0 l/m 0,43 h 0,10 h 349 W/m 19,5 km/h (3 Bft) 96,01 %
19.07.2023 18:00 19,8 C 19,3 C 15,1 C 85 % 1013,4 hPa 0,4 l/m 0,17 h 0,20 h 112 W/m 8,0 km/h (2 Bft) 99,26 %
19.07.2023 19:00 21,1 C 21,4 C 17,2 C 77 % 1013,4 hPa 0,0 l/m 0,57 h 0,00 h 176 W/m 14,3 km/h (3 Bft) 95,94 %
19.07.2023 20:00 20,7 C 19,9 C 16,5 C 75 % 1013,8 hPa 0,0 l/m 0,00 h 0,00 h 45 W/m 8,7 km/h (2 Bft) 97,87 %
19.07.2023 21:00 20,4 C 19,3 C 15,7 C 74 % 1014,1 hPa 0,0 l/m 0,00 h 0,00 h 12 W/m 9,2 km/h (2 Bft) 98,30 %
19.07.2023 22:00 19,2 C 17,9 C 14,4 C 78 % 1014,3 hPa 0,0 l/m 0,00 h 0,00 h 0 W/m 3,4 km/h (1 Bft) 96,69 %
19.07.2023 23:00 18,2 C 16,9 C 13,5 C 82 % 1014,5 hPa 0,0 l/m 0,00 h 0,00 h 0 W/m 0,6 km/h (0 Bft) 97,07 %
20.07.2023 00:00 17,9 C 16,7 C 13,5 C 84 % 1014,6 hPa 0,0 l/m 0,00 h 0,00 h 0 W/m 1,5 km/h (1 Bft) 99,02 %
20.07.2023 01:00 17,1 C 16,0 C 12,8 C 86 % 1014,6 hPa 0,0 l/m 0,00 h 0,00 h 0 W/m 1,2 km/h (1 Bft) 95,48 %
20.07.2023 02:00 16,7 C 15,6 C 12,2 C 89 % 1014,4 hPa 0,2 l/m 0,00 h 0,30 h 0 W/m 1,8 km/h (1 Bft) 98,03 %
20.07.2023 03:00 16,4 C 15,5 C 11,7 C 92 % 1014,3 hPa 0,0 l/m 0,00 h 0,00 h 0 W/m 4,3 km/h (1 Bft) 98,65 %
20.07.2023 04:00 15,9 C 14,8 C 11,7 C 92 % 1014,3 hPa 0,0 l/m 0,00 h 0,00 h 0 W/m 2,7 km/h (1 Bft) 96,47 %
20.07.2023 05:00 15,7 C 14,8 C 11,7 C 93 % 1014,5 hPa 0,0 l/m 0,00 h 0,00 h 0 W/m 3,2 km/h (1 Bft) 97,94 %
20.07.2023 06:00 16,1 C 15,6 C 12,2 C 93 % 1014,9 hPa 0,0 l/m 0,00 h 0,00 h 16 W/m 5,8 km/h (2 Bft) 97,04 %
20.07.2023 07:00 16,3 C 15,7 C 12,3 C 93 % 1015,1 hPa 0,0 l/m 0,00 h 0,00 h 64 W/m 6,6 km/h (2 Bft) 98,07 %
20.07.2023 08:00 16,9 C 18,6 C 13,2 C 91 % 1015,4 hPa 0,0 l/m 0,57 h 0,00 h 231 W/m 7,8 km/h (2 Bft) 97,05 %
20.07.2023 09:00 17,8 C 20,2 C 15,3 C 85 % 1015,7 hPa 0,0 l/m 0,50 h 0,00 h 336 W/m 8,3 km/h (2 Bft) 99,29 %
20.07.2023 10:00 19,1 C 20,7 C 16,2 C 78 % 1015,9 hPa 0,0 l/m 0,57 h 0,00 h 464 W/m 9,1 km/h (2 Bft) 94,67 %
20.07.2023 11:00 20,7 C 24,0 C 18,5 C 71 % 1015,9 hPa 0,0 l/m 0,83 h 0,00 h 750 W/m 11,7 km/h (2 Bft) 98,58 %
20.07.2023 12:00 21,6 C 25,3 C 20,5 C 65 % 1015,7 hPa 0,0 l/m 0,68 h 0,00 h 662 W/m 10,2 km/h (2 Bft) 97,64 %
20.07.2023 13:00 22,8 C 27,2 C 19,2 C 60 % 1015,3 hPa 0,0 l/m 0,77 h 0,00 h 759 W/m 10,6 km/h (2 Bft) 97,65 %
20.07.2023 14:00 22,9 C 24,3 C 18,6 C 59 % 1015,0 hPa 0,0 l/m 0,27 h 0,00 h 421 W/m 12,2 km/h (2 Bft) 96,37 %
20.07.2023 15:00 22,6 C 23,3 C 18,3 C 59 % 1014,9 hPa 0,0 l/m 0,10 h 0,00 h 286 W/m 10,8 km/h (2 Bft) 97,94 %
20.07.2023 16:00 23,5 C 25,7 C 19,2 C 57 % 1014,4 hPa 0,0 l/m 0,73 h 0,00 h 535 W/m 10,1 km/h (2 Bft) 97,84 %
20.07.2023 17:00 24,1 C 26,8 C 19,8 C 54 % 1013,9 hPa 0,0 l/m 0,87 h 0,00 h 418 W/m 10,8 km/h (2 Bft) 98,07 %
20.07.2023 18:00 23,6 C 23,4 C 19,0 C 55 % 1013,5 hPa 0,0 l/m 0,07 h 0,00 h 161 W/m 7,8 km/h (2 Bft) 96,29 %
20.07.2023 19:00 22,8 C 22,2 C 18,3 C 58 % 1013,2 hPa 0,0 l/m 0,10 h 0,00 h 112 W/m 4,5 km/h (1 Bft) 99,44 %
20.07.2023 20:00 22,1 C 20,8 C 17,3 C 61 % 1013,0 hPa 0,0 l/m 0,00 h 0,00 h 31 W/m 3,5 km/h (1 Bft) 96,57 %
20.07.2023 21:00 21,1 C 19,8 C 16,4 C 63 % 1013,0 hPa 0,0 l/m 0,00 h 0,00 h 8 W/m 5,5 km/h (1 Bft) 97,60 %
20.07.2023 22:00 19,3 C 17,7 C 14,2 C 73 % 1013,8 hPa 0,0 l/m 0,00 h 0,13 h 0 W/m 11,7 km/h (2 Bft) 98,51 %
20.07.2023 23:00 17,3 C 16,2 C 13,0 C 85 % 1013,6 hPa 0,0 l/m 0,00 h 0,00 h 0 W/m 1,9 km/h (1 Bft) 96,74 %
21.07.2023 00:00 16,7 C 15,5 C 12,4 C 87 % 1013,2 hPa 0,0 l/m 0,00 h 0,00 h 0 W/m 2,3 km/h (1 Bft) 97,26 %
21.07.2023 01:00 15,9 C 14,4 C 11,4 C 89 % 1013,0 hPa 0,0 l/m 0,00 h 0,00 h 0 W/m 0,1 km/h (0 Bft) 97,56 %
21.07.2023 02:00 15,3 C 14,1 C 11,1 C 90 % 1012,6 hPa 0,0 l/m 0,00 h 0,00 h 0 W/m 0,0 km/h (0 Bft) 97,44 %
21.07.2023 03:00 15,0 C 13,9 C 11,0 C 91 % 1012,2 hPa 0,0 l/m 0,00 h 0,00 h 0 W/m 0,2 km/h (0 Bft) 94,92 %
21.07.2023 04:00 14,9 C 13,9 C 11,1 C 92 % 1011,8 hPa 0,0 l/m 0,00 h 0,00 h 0 W/m 1,4 km/h (1 Bft) 97,43 %
21.07.2023 05:00 14,5 C 13,5 C 10,6 C 92 % 1011,8 hPa 0,0 l/m 0,00 h 0,00 h 6 W/m 0,0 km/h (0 Bft) 98,58 %
21.07.2023 06:00 14,2 C 13,4 C 10,4 C 93 % 1011,7 hPa 0,0 l/m 0,00 h 0,00 h 28 W/m 0,0 km/h (0 Bft) 96,26 %
21.07.2023 07:00 14,7 C 14,6 C 11,2 C 94 % 1011,6 hPa 0,0 l/m 0,00 h 0,00 h 71 W/m 0,0 km/h (0 Bft) 97,72 %
21.07.2023 08:00 16,0 C 18,1 C 13,1 C 90 % 1011,7 hPa 0,0 l/m 0,47 h 0,00 h 206 W/m 0,0 km/h (0 Bft) 97,96 %
21.07.2023 09:00 18,6 C 22,6 C 17,0 C 78 % 1011,5 hPa 0,0 l/m 0,87 h 0,00 h 415 W/m 0,1 km/h (0 Bft) 98,08 %
21.07.2023 10:00 19,6 C 20,7 C 16,8 C 73 % 1011,5 hPa 0,0 l/m 0,83 h 0,00 h 418 W/m 4,4 km/h (1 Bft) 97,23 %
21.07.2023 11:00 20,7 C 22,4 C 17,8 C 68 % 1011,3 hPa 0,0 l/m 0,70 h 0,00 h 527 W/m 8,6 km/h (2 Bft) 96,94 %
21.07.2023 12:00 22,1 C 25,0 C 20,9 C 61 % 1011,1 hPa 0,0 l/m 0,83 h 0,00 h 684 W/m 14,0 km/h (3 Bft) 97,75 %
21.07.2023 13:00 22,7 C 24,7 C 19,1 C 58 % 1010,8 hPa 0,0 l/m 0,37 h 0,00 h 499 W/m 11,1 km/h (2 Bft) 99,50 %
21.07.2023 14:00 21,9 C 21,6 C 18,1 C 61 % 1010,8 hPa 0,0 l/m 0,00 h 0,00 h 213 W/m 15,4 km/h (3 Bft) 95,07 %
21.07.2023 15:00 17,9 C 17,1 C 13,4 C 80 % 1011,9 hPa 0,4 l/m 0,00 h 0,80 h 168 W/m 17,3 km/h (3 Bft) 98,73 %
21.07.2023 16:00 17,7 C 18,0 C 14,1 C 84 % 1011,9 hPa 0,2 l/m 0,00 h 0,03 h 231 W/m 10,1 km/h (2 Bft) 97,94 %
21.07.2023 17:00 18,5 C 19,3 C 14,9 C 82 % 1012,0 hPa 0,0 l/m 0,30 h 0,00 h 252 W/m 10,7 km/h (2 Bft) 96,72 %
21.07.2023 18:00 19,9 C 22,5 C 16,4 C 74 % 1012,2 hPa 0,0 l/m 0,63 h 0,00 h 308 W/m 10,8 km/h (2 Bft) 97,23 %
21.07.2023 19:00 20,5 C 20,5 C 16,2 C 72 % 1012,3 hPa 0,0 l/m 0,37 h 0,00 h 130 W/m 10,0 km/h (2 Bft) 97,87 %
21.07.2023 20:00 19,6 C 18,9 C 15,3 C 61 % 1012,8 hPa 0,0 l/m 0,03 h 0,00 h 45 W/m 13,5 km/h (3 Bft) 97,08 %
21.07.2023 21:00 18,1 C 16,7 C 13,3 C 65 % 1013,5 hPa 0,0 l/m 0,00 h 0,00 h 11 W/m 6,6 km/h (2 Bft) 98,43 %
21.07.2023 22:00 16,6 C 15,0 C 11,7 C 70 % 1014,2 hPa 0,0 l/m 0,00 h 0,00 h 0 W/m 2,1 km/h (1 Bft) 96,37 %
21.07.2023 23:00 15,1 C 13,6 C 10,7 C 77 % 1014,7 hPa 0,0 l/m 0,00 h 0,00 h 0 W/m 0,1 km/h (0 Bft) 97,43 %
22.07.2023 00:00 14,3 C 13,2 C 10,1 C 81 % 1014,8 hPa 0,0 l/m 0,00 h 0,00 h 0 W/m 0,1 km/h (0 Bft) 98,80 %
22.07.2023 01:00 14,1 C 13,3 C 10,3 C 83 % 1014,9 hPa 0,0 l/m 0,00 h 0,00 h 0 W/m 2,6 km/h (1 Bft) 96,80 %
22.07.2023 02:00 14,5 C 13,9 C 11,0 C 82 % 1014,8 hPa 0,0 l/m 0,00 h 0,00 h 0 W/m 5,1 km/h (1 Bft) 96,81 %
22.07.2023 03:00 14,3 C 13,6 C 10,6 C 81 % 1014,5 hPa 0,0 l/m 0,00 h 0,00 h 0 W/m 7,4 km/h (2 Bft) 96,81 %
22.07.2023 04:00 13,8 C 12,9 C 10,0 C 80 % 1014,4 hPa 0,0 l/m 0,00 h 0,00 h 0 W/m 7,4 km/h (2 Bft) 97,22 %
22.07.2023 05:00 13,7 C 12,8 C 10,0 C 80 % 1014,5 hPa 0,0 l/m 0,00 h 0,00 h 4 W/m 7,0 km/h (2 Bft) 96,58 %
22.07.2023 06:00 13,6 C 13,0 C 10,0 C 81 % 1014,6 hPa 0,0 l/m 0,00 h 0,00 h 19 W/m 3,6 km/h (1 Bft) 96,07 %
22.07.2023 07:00 13,9 C 13,6 C 10,4 C 82 % 1014,6 hPa 0,0 l/m 0,00 h 0,00 h 73 W/m 6,0 km/h (2 Bft) 98,23 %
22.07.2023 08:00 15,2 C 16,2 C 12,1 C 80 % 1014,7 hPa 0,0 l/m 0,37 h 0,00 h 192 W/m 7,6 km/h (2 Bft) 97,44 %
22.07.2023 09:00 17,1 C 18,2 C 14,1 C 75 % 1014,7 hPa 0,0 l/m 0,63 h 0,00 h 289 W/m 11,4 km/h (2 Bft) 98,58 %
22.07.2023 10:00 18,9 C 19,9 C 15,8 C 70 % 1014,7 hPa 0,0 l/m 0,93 h 0,00 h 427 W/m 17,4 km/h (3 Bft) 95,87 %
22.07.2023 11:00 20,2 C 21,1 C 17,2 C 65 % 1014,6 hPa 0,0 l/m 0,80 h 0,00 h 476 W/m 18,9 km/h (3 Bft) 97,49 %
22.07.2023 12:00 22,0 C 25,8 C 21,6 C 59 % 1014,4 hPa 0,0 l/m 1,00 h 0,00 h 835 W/m 19,4 km/h (3 Bft) 99,07 %
22.07.2023 13:00 22,7 C 25,1 C 19,5 C 56 % 1014,1 hPa 0,0 l/m 1,00 h 0,00 h 667 W/m 21,1 km/h (4 Bft) 96,43 %
22.07.2023 14:00 23,8 C 26,4 C 20,2 C 52 % 1013,5 hPa 0,0 l/m 0,83 h 0,00 h 635 W/m 20,3 km/h (4 Bft) 96,87 %
22.07.2023 15:00 24,0 C 25,5 C 20,2 C 50 % 1013,1 hPa 0,0 l/m 0,97 h 0,00 h 523 W/m 18,5 km/h (3 Bft) 97,32 %
22.07.2023 16:00 24,4 C 26,3 C 20,2 C 50 % 1012,6 hPa 0,0 l/m 0,77 h 0,00 h 588 W/m 19,0 km/h (3 Bft) 98,86 %
22.07.2023 17:00 23,7 C 23,9 C 19,5 C 51 % 1012,4 hPa 0,0 l/m 0,27 h 0,00 h 267 W/m 16,7 km/h (3 Bft) 96,80 %
22.07.2023 18:00 23,1 C 23,0 C 18,8 C 52 % 1012,3 hPa 0,0 l/m 0,27 h 0,00 h 203 W/m 14,3 km/h (3 Bft) 97,20 %
22.07.2023 19:00 22,1 C 21,4 C 17,8 C 55 % 1012,2 hPa 0,0 l/m 0,00 h 0,00 h 90 W/m 15,6 km/h (3 Bft) 98,38 %
22.07.2023 20:00 21,4 C 20,4 C 17,0 C 57 % 1012,0 hPa 0,0 l/m 0,00 h 0,00 h 31 W/m 8,4 km/h (2 Bft) 97,51 %
22.07.2023 21:00 20,8 C 19,6 C 16,3 C 60 % 1012,0 hPa 0,0 l/m 0,00 h 0,00 h 6 W/m 2,9 km/h (1 Bft) 96,17 %
22.07.2023 22:00 20,1 C 18,6 C 15,3 C 65 % 1011,9 hPa 0,0 l/m 0,00 h 0,03 h 0 W/m 0,0 km/h (0 Bft) 99,22 %
22.07.2023 23:00 19,4 C 18,0 C 14,4 C 72 % 1011,7 hPa 0,0 l/m 0,00 h 0,23 h 0 W/m 0,0 km/h (0 Bft) 96,19 %
23.07.2023 00:00 18,7 C 17,2 C 13,0 C 82 % 1011,3 hPa 0,0 l/m 0,00 h 0,33 h 0 W/m 0,0 km/h (0 Bft) 96,76 %
23.07.2023 01:00 18,1 C 17,2 C 13,9 C 81 % 1010,7 hPa 0,0 l/m 0,00 h 0,00 h 0 W/m 2,6 km/h (1 Bft) 98,91 %
23.07.2023 02:00 18,0 C 17,2 C 13,9 C 77 % 1009,8 hPa 0,0 l/m 0,00 h 0,00 h 0 W/m 4,1 km/h (1 Bft) 95,62 %
23.07.2023 03:00 17,8 C 16,7 C 13,7 C 76 % 1009,0 hPa 0,0 l/m 0,00 h 0,00 h 0 W/m 4,7 km/h (1 Bft) 98,37 %
23.07.2023 04:00 17,5 C 16,7 C 13,3 C 76 % 1008,3 hPa 0,0 l/m 0,00 h 0,00 h 0 W/m 5,7 km/h (1 Bft) 97,75 %
23.07.2023 05:00 17,6 C 16,7 C 13,5 C 73 % 1007,9 hPa 0,0 l/m 0,00 h 0,00 h 0 W/m 6,4 km/h (2 Bft) 97,41 %
23.07.2023 06:00 17,9 C 17,3 C 14,0 C 72 % 1007,8 hPa 0,0 l/m 0,00 h 0,00 h 18 W/m 8,2 km/h (2 Bft) 97,33 %
23.07.2023 07:00 19,0 C 18,6 C 14,8 C 67 % 1007,9 hPa 0,0 l/m 0,00 h 0,00 h 73 W/m 19,6 km/h (3 Bft) 98,44 %
23.07.2023 08:00 19,3 C 18,9 C 15,0 C 67 % 1007,9 hPa 0,0 l/m 0,00 h 0,00 h 92 W/m 20,2 km/h (4 Bft) 95,34 %
23.07.2023 09:00 19,1 C 18,4 C 14,9 C 69 % 1007,9 hPa 0,0 l/m 0,00 h 0,00 h 73 W/m 25,3 km/h (4 Bft) 99,15 %
23.07.2023 10:00 18,0 C 17,3 C 13,5 C 80 % 1008,3 hPa 0,0 l/m 0,00 h 0,33 h 136 W/m 29,7 km/h (5 Bft) 98,00 %
23.07.2023 11:00 17,9 C 17,8 C 14,1 C 86 % 1008,4 hPa 0,0 l/m 0,00 h 0,03 h 226 W/m 24,8 km/h (4 Bft) 95,31 %
23.07.2023 12:00 19,2 C 19,1 C 15,5 C 81 % 1008,5 hPa 0,0 l/m 0,00 h 0,00 h 235 W/m 26,5 km/h (4 Bft) 98,34 %
23.07.2023 13:00 19,7 C 19,5 C 15,9 C 79 % 1008,5 hPa 0,0 l/m 0,00 h 0,00 h 235 W/m 30,5 km/h (5 Bft) 98,08 %
23.07.2023 14:00 20,2 C 20,1 C 16,5 C 80 % 1008,5 hPa 0,0 l/m 0,03 h 0,00 h 260 W/m 28,0 km/h (4 Bft) 96,13 %
23.07.2023 15:00 21,5 C 21,7 C 17,7 C 76 % 1008,3 hPa 0,0 l/m 0,10 h 0,00 h 273 W/m 29,4 km/h (5 Bft) 99,15 %
23.07.2023 16:00 22,0 C 22,4 C 17,9 C 76 % 1008,0 hPa 0,0 l/m 0,37 h 0,00 h 322 W/m 25,9 km/h (4 Bft) 97,01 %
23.07.2023 17:00 23,4 C 24,8 C 19,2 C 72 % 1007,5 hPa 0,0 l/m 0,77 h 0,00 h 432 W/m 29,4 km/h (5 Bft) 98,61 %
23.07.2023 18:00 23,5 C 23,8 C 19,1 C 71 % 1007,1 hPa 0,0 l/m 0,57 h 0,00 h 237 W/m 28,8 km/h (5 Bft) 96,63 %
23.07.2023 19:00 22,5 C 21,8 C 18,0 C 75 % 1006,8 hPa 0,0 l/m 0,00 h 0,00 h 96 W/m 33,1 km/h (5 Bft) 98,51 %
23.07.2023 20:00 21,4 C 20,3 C 16,7 C 81 % 1006,9 hPa 0,4 l/m 0,00 h 0,23 h 30 W/m 27,3 km/h (4 Bft) 97,93 %
23.07.2023 21:00 19,6 C 18,0 C 14,4 C 92 % 1007,0 hPa 0,8 l/m 0,00 h 0,77 h 0 W/m 15,6 km/h (3 Bft) 94,74 %
23.07.2023 22:00 18,9 C 17,7 C 14,1 C 96 % 1007,1 hPa 1,8 l/m 0,00 h 0,43 h 0 W/m 17,1 km/h (3 Bft) 97,86 %
23.07.2023 23:00 18,6 C 17,8 C 13,9 C 97 % 1006,9 hPa 0,2 l/m 0,00 h 0,53 h 0 W/m 15,9 km/h (3 Bft) 98,44 %
Min-Datum _ 18.07.23 18.07.23 18.07.23 18.07.23 23.07.23 - - - - 17.07.23 17.07.23
_ Min-Zeit 06:54 06:10 06:00 18:56 19:06 - - - - 00:00 00:02
Minimum _ 12,6 C 11,7 C 8,9 C 49 % 1006,7 hPa - - - - 0,0 km/h (0 Bft) 20,00 %
Max-Datum _ 18.07.23 18.07.23 22.07.23 23.07.23 18.07.23 17.07.23 17.07.23 17.07.23 19.07.23 23.07.23 17.07.23
_ Max-Zeit 18:54 18:34 12:38 23:18 01:24 18:07 10:09 18:12 13:52 13:08 00:00
Maximum _ 26,7 C 31,7 C 25,0 C 97 % 1022,4 hPa 2,2 l/m 0,08 h 0,07 h 1162 W/m 67,6 km/h
S-SO (8 Bft)
100,00 %
Durchschnitt _ 19,1 C 19,3 C 15,2 C 75 % 1014,4 hPa #7,2 l/m #44:37 h #5:48 h 297 W/m 9,2 km/h (2 Bft) 97,40 %
© 2023 W. Hausmann